ADDS METAR Data INFO
IDs: Format: Raw Decoded Include TAF

Data at: 0255 UTC 17 Jan 2018

KCSM 170253Z 06003KT 10SM CLR M12/M22 A3067 RMK AO2 SLP422 T11221217 52005 $
KCSM 170153Z 04005KT 10SM CLR M11/M22 A3067 RMK AO2 SLP421 T11061217 $
KCSM 170053Z 03007KT 10SM CLR M11/M22 A3066 RMK AO2 SLP417 T11061222 $
KCSM 162353Z 02006KT 10SM CLR M08/M22 A3065 RMK AO2 SLP414 T10831217 11044 21089 56007 $
KCSM 162253Z 36010KT 10SM CLR M05/M21 A3066 RMK AO2 SLP412 T10501211 $
KCSM 162153Z 01010KT 10SM CLR M05/M21 A3066 RMK AO2 SLP413 T10501211 $
KCSM 162053Z 34014KT 10SM CLR M04/M21 A3068 RMK AO2 SLP417 T10441206 56031 $
KCSM 161953Z 36013G19KT 10SM CLR M06/M21 A3070 RMK AO2 SLP426 T10611206 $
KCSM 161853Z 34015G21KT 10SM CLR M07/M21 A3073 RMK AO2 SLP435 T10721206 $
KCSM 161753Z 34012KT 10SM CLR M09/M21 A3077 RMK AO2 SLP451 T10891206 11089 21156 58007 $
KCSM 161653Z 34012KT 10SM CLR M11/M21 A3080 RMK AO2 SLP462 T11111206 $
KCSM 161553Z 34014KT 10SM CLR M12/M22 A3081 RMK AO2 SLP465 T11221217 $
KCSM 161453Z 34013KT CLR M14/M21 A3080 RMK AO2 SLP463 T11391211 51026 $
KCSM 161353Z AUTO 34010KT CLR M16/M22 A3078 RMK AO2 SLP457 T11561217 $
KCSM 161253Z AUTO 36017KT CLR M14/M21 A3077 RMK AO2 PK WND 36029/1155 SLP452 T11441211 $
KCSM 161153Z AUTO 36024KT CLR M14/M21 A3072 RMK AO2 PK WND 36031/1137 SLP433 T11391211 11089 21139 58001 $
KCSM 161053Z AUTO 36019G26KT CLR M14/M21 A3072 RMK AO2 PK WND 36026/1022 SLP432 T11391211 $
KCSM 160953Z AUTO 36017KT CLR M13/M21 A3072 RMK AO2 SLP432 T11331206 $
KCSM 160853Z AUTO 36018KT CLR M12/M20 A3072 RMK AO2 SLP429 T11221200 55001 $
KCSM 160753Z AUTO 36013KT CLR M12/M20 A3071 RMK AO2 SLP423 T11171200 $
KCSM 160653Z AUTO 01019KT CLR M10/M19 A3072 RMK AO2 PK WND 01026/0638 SLP422 T11001194 $
KCSM 160553Z AUTO 36021G26KT BKN110 M09/M18 A3072 RMK AO2 PK WND 35030/0523 SLP424 T10891183 11061 21089 400281089 51017 $
KCSM 160453Z AUTO 36021KT OVC110 M08/M18 A3070 RMK AO2 PK WND 01026/0452 SLP415 T10831178 $
KCSM 160353Z AUTO 01019G23KT CLR M09/M18 A3069 RMK AO2 SLP413 T10891183 $
KCSM 160253Z AUTO 01014KT FEW110 M08/M17 A3067 RMK AO2 SLP405 T10831172 53027 $
KCSM 160153Z AUTO 01016KT OVC085 M07/M17 A3064 RMK AO2 SLP394 T10671172 $
KCSM 160053Z AUTO 01017KT OVC080 M07/M19 A3061 RMK AO2 SLP389 T10671189 $
KCSM 152353Z AUTO 02018KT OVC080 M06/M20 A3058 RMK AO2 PK WND 36030/2316 SLP375 T10611200 10022 21061 51032 $
KCSM 152253Z AUTO 36021G27KT OVC075 M05/M18 A3055 RMK AO2 PK WND 01027/2230 SLP364 T10501183
KCSM 152153Z AUTO 01023KT OVC070 M04/M16 A3052 RMK AO2 PK WND 01033/2055 SLP353 T10391161
KCSM 152053Z AUTO 01027G35KT OVC065 M03/M20 A3048 RMK AO2 PK WND 01035/2053 SLP337 T10281200 53012
KCSM 151953Z AUTO 01025G33KT BKN065 M01/M16 A3046 RMK AO2 PK WND 36036/1857 SLP328 T10111161
KCSM 151853Z AUTO 01027G35KT FEW030 OVC055 02/M09 A3046 RMK AO2 PK WND 02035/1847 SLP325 T00171089
KCSM 151842Z AUTO 03026G34KT BKN030 OVC055 02/M08 A3045 RMK AO2 PK WND 01035/1823 T00171078
KCSM 151753Z AUTO 02027G34KT BKN024 OVC029 01/M06 A3045 RMK AO2 PK WND 01039/1700 SLP322 T00111061 10028 21039 53018
KCSM 151715Z AUTO 02029G35KT BKN028 02/M06 A3044 RMK AO2 PK WND 01039/1700 T00221056
KCSM 151653Z AUTO 03028G36KT SCT024 BKN035 02/M06 A3042 RMK AO2 PK WND 02040/1636 SLP313 T00221056
KCSM 151639Z AUTO 03028G40KT FEW022 OVC035 02/M05 A3042 RMK AO2 PK WND 02040/1636 T00221050
KCSM 151608Z AUTO 02028G33KT BKN018 OVC022 01/M04 A3040 RMK AO2 PK WND 03034/1557 T00111039
KCSM 151553Z AUTO 04024G34KT SCT009 OVC014 01/M03 A3039 RMK AO2 PK WND 04036/1502 PRESRR SLP302 T00111028
KCSM 151551Z AUTO 04027G34KT SCT009 OVC014 01/M03 A3039 RMK AO2 PK WND 04036/1502 PRESRR
KCSM 151534Z AUTO 03026G33KT OVC009 02/M01 A3037 RMK AO2 PK WND 04036/1502 T00171011